Main page
Satellite images 10-day forecastsClimateMarine weather Cyclones Lightning AirportsFAQ Newsletter About
Weather : Europe Africa North America South America Asia Australia-Oceania Others
Languages Contact

Waddington, England

RAF Waddington

latitude: 53-10N, longitude: 000-31W, elevation: 68 m


METAR: EGXW 271450Z 26009KT 9999 SCT048 10/M02 Q1018 BLU NOSIG
TAF: missing

Time: 15:35 (15:35 UTC)

Current weather observation

The report was made 45 minutes ago, at 14:50 UTC
Wind 9 kt from the West
Temperature 10°C
Humidity 43%
Pressure 1018 hPa
Visibility 10 km or more
Scattered clouds at a height of 4800 ft

Change units
The information on this site is subject to a disclaimer
Weather : Europe Africa North America South America Asia Australia-Oceania Others
Satellite images 10-day forecastsClimateMarine weather Cyclones Lightning AirportsFAQ Languages Contact Newsletter About